createdAt,value
2022-08-22T00:02:07.189Z,18.49
2022-08-22T00:02:53.827Z,20.91
2022-08-22T00:02:53.911Z,20.85
2022-08-22T00:02:54.564Z,19.66
2022-08-22T00:02:57.558Z,18.74
2022-08-22T00:05:05.807Z,18.48
2022-08-22T00:07:56.917Z,18.47
2022-08-22T00:10:47.974Z,18.47
2022-08-22T00:13:31.931Z,18.49
2022-08-22T00:16:22.624Z,18.50
2022-08-22T00:19:01.666Z,18.50
2022-08-22T00:21:41.772Z,18.50
2022-08-22T00:24:20.954Z,18.49
2022-08-22T00:27:01.953Z,18.48
2022-08-22T00:29:39.464Z,18.46
2022-08-22T00:32:14.493Z,18.45
2022-08-22T00:35:03.325Z,18.45
2022-08-22T00:37:45.511Z,18.42
2022-08-22T00:40:50.088Z,18.41
2022-08-22T00:44:23.560Z,18.39
2022-08-22T00:47:20.828Z,18.35
2022-08-22T00:50:20.075Z,18.34
2022-08-22T00:53:40.319Z,18.31
2022-08-22T00:56:49.351Z,18.29
2022-08-22T00:59:43.016Z,18.22
2022-08-22T01:02:52.579Z,18.18
2022-08-22T01:05:41.606Z,18.15
2022-08-22T01:08:38.684Z,18.13
2022-08-22T01:11:03.698Z,18.10
2022-08-22T01:14:08.302Z,18.10
2022-08-22T01:17:09.409Z,18.10
2022-08-22T01:20:17.953Z,18.08
2022-08-22T01:23:25.298Z,18.08
2022-08-22T01:26:27.729Z,18.09
2022-08-22T01:29:28.421Z,18.09
2022-08-22T01:32:18.541Z,18.09
2022-08-22T01:35:02.390Z,18.11
2022-08-22T01:37:30.112Z,18.11
2022-08-22T01:40:37.276Z,18.10
2022-08-22T01:43:58.887Z,18.09
2022-08-22T01:46:36.655Z,18.09
2022-08-22T01:49:19.326Z,18.08
2022-08-22T01:51:51.252Z,18.07
2022-08-22T01:54:31.097Z,18.07
2022-08-22T01:57:02.808Z,18.08
2022-08-22T01:59:42.434Z,18.09
2022-08-22T02:02:51.368Z,18.08
2022-08-22T02:05:50.088Z,18.04
2022-08-22T02:08:42.803Z,18.01
2022-08-22T02:11:10.835Z,17.99
2022-08-22T02:14:00.155Z,17.98
2022-08-22T02:16:31.086Z,17.98
2022-08-22T02:19:11.928Z,17.98
2022-08-22T02:22:03.613Z,18.00
2022-08-22T02:24:50.002Z,18.02
2022-08-22T02:27:46.646Z,18.05
2022-08-22T02:30:17.028Z,18.07
2022-08-22T02:32:42.121Z,18.09
2022-08-22T02:35:12.929Z,18.10
2022-08-22T02:37:48.432Z,18.12
2022-08-22T02:40:28.504Z,18.12
2022-08-22T02:43:26.441Z,18.13
2022-08-22T02:46:05.601Z,18.13
2022-08-22T02:48:44.430Z,18.14
2022-08-22T02:51:21.470Z,18.13
2022-08-22T02:54:16.988Z,18.12
2022-08-22T02:57:14.143Z,18.10
2022-08-22T03:00:02.148Z,18.06
2022-08-22T03:02:37.106Z,18.00
2022-08-22T03:05:15.792Z,17.95
2022-08-22T03:07:48.522Z,17.90
2022-08-22T03:10:26.206Z,17.87
2022-08-22T03:13:19.006Z,17.84
2022-08-22T03:16:05.592Z,17.82
2022-08-22T03:19:01.676Z,17.83
2022-08-22T03:21:36.480Z,17.83
2022-08-22T03:24:12.792Z,17.82
2022-08-22T03:27:06.099Z,17.80
2022-08-22T03:30:01.008Z,17.80
2022-08-22T03:32:56.507Z,17.81
2022-08-22T03:35:58.528Z,17.81
2022-08-22T03:38:29.550Z,17.83
2022-08-22T03:41:13.047Z,17.86
2022-08-22T03:44:19.520Z,17.87
2022-08-22T03:47:09.186Z,17.89
2022-08-22T03:50:04.840Z,17.90
2022-08-22T03:53:19.639Z,17.90
2022-08-22T03:56:15.668Z,17.89
2022-08-22T03:59:01.114Z,17.90
2022-08-22T04:02:01.623Z,17.91
2022-08-22T04:04:59.764Z,17.89
2022-08-22T04:07:58.609Z,17.90
2022-08-22T04:10:59.056Z,17.89
2022-08-22T04:13:48.698Z,17.89
2022-08-22T04:16:40.188Z,17.89
2022-08-22T04:19:28.753Z,17.85
2022-08-22T04:22:17.843Z,17.83
2022-08-22T04:24:48.400Z,17.81
2022-08-22T04:27:55.938Z,17.79
2022-08-22T04:30:46.970Z,17.74
2022-08-22T04:33:26.088Z,17.71
2022-08-22T04:36:04.347Z,17.67
2022-08-22T04:38:37.238Z,17.64
2022-08-22T04:41:11.198Z,17.60
2022-08-22T04:44:06.973Z,17.60
2022-08-22T04:46:48.072Z,17.57
2022-08-22T04:49:29.164Z,17.55
2022-08-22T04:52:06.009Z,17.54
2022-08-22T04:55:03.577Z,17.54
2022-08-22T04:57:45.133Z,17.54
2022-08-22T05:00:11.928Z,17.53
2022-08-22T05:02:40.012Z,17.50
2022-08-22T05:05:13.592Z,17.49
2022-08-22T05:08:02.006Z,17.48
2022-08-22T05:10:33.084Z,17.46
2022-08-22T05:13:24.723Z,17.47
2022-08-22T05:15:54.290Z,17.44
2022-08-22T05:18:29.634Z,17.46
2022-08-22T05:20:55.116Z,17.46
2022-08-22T05:23:27.713Z,17.49
2022-08-22T05:25:56.425Z,17.53
2022-08-22T05:28:41.871Z,17.59
2022-08-22T05:31:14.076Z,17.63
2022-08-22T05:33:50.611Z,17.68
2022-08-22T05:36:38.768Z,17.71
2022-08-22T05:39:14.832Z,17.75
2022-08-22T05:41:39.836Z,17.80
2022-08-22T05:44:02.769Z,17.82
2022-08-22T05:46:46.819Z,17.87
2022-08-22T05:49:31.758Z,17.91
2022-08-22T05:52:02.376Z,17.95
2022-08-22T05:54:34.662Z,18.01
2022-08-22T05:57:22.890Z,18.07
2022-08-22T05:59:51.497Z,18.11
2022-08-22T06:02:39.090Z,18.20
2022-08-22T06:05:11.733Z,18.26
2022-08-22T06:08:14.118Z,18.35
2022-08-22T06:10:48.255Z,18.40
2022-08-22T06:13:42.473Z,18.44
2022-08-22T06:16:21.462Z,18.41
2022-08-22T06:18:45.741Z,18.43
2022-08-22T06:21:24.619Z,18.48
2022-08-22T06:24:00.097Z,18.52
2022-08-22T06:26:26.193Z,18.53
2022-08-22T06:28:55.906Z,18.60
2022-08-22T06:31:26.182Z,18.66
2022-08-22T06:34:13.777Z,18.70
2022-08-22T06:36:41.446Z,18.71
2022-08-22T06:39:23.455Z,18.71
2022-08-22T06:41:57.322Z,18.72
2022-08-22T06:44:33.636Z,18.81
2022-08-22T06:47:01.246Z,18.92
2022-08-22T06:49:27.480Z,19.04
2022-08-22T06:51:51.055Z,19.14
2022-08-22T06:54:32.493Z,19.25
2022-08-22T06:56:57.716Z,19.37
2022-08-22T06:59:27.647Z,19.43
2022-08-22T07:01:58.544Z,19.49
2022-08-22T07:04:26.682Z,19.57
2022-08-22T07:06:51.663Z,19.69
2022-08-22T07:09:36.320Z,19.79
2022-08-22T07:12:12.113Z,19.85
2022-08-22T07:14:44.212Z,19.92
2022-08-22T07:17:09.401Z,19.97
2022-08-22T07:19:33.080Z,19.99
2022-08-22T07:21:57.363Z,20.00
2022-08-22T07:24:31.731Z,20.09
2022-08-22T07:27:20.090Z,20.22
2022-08-22T07:29:53.330Z,20.32
2022-08-22T07:32:25.375Z,20.41
2022-08-22T07:35:11.488Z,20.56
2022-08-22T07:37:50.355Z,20.62
2022-08-22T07:40:54.232Z,20.66
2022-08-22T07:43:47.139Z,20.79
2022-08-22T07:46:30.177Z,20.92
2022-08-22T07:49:17.507Z,21.03
2022-08-22T07:51:53.364Z,21.14
2022-08-22T07:54:27.120Z,21.23
2022-08-22T07:57:05.475Z,21.31
2022-08-22T07:59:31.665Z,21.35
2022-08-22T08:01:58.872Z,21.43
2022-08-22T08:04:40.205Z,21.53
2022-08-22T08:07:08.386Z,21.59
2022-08-22T08:09:40.890Z,21.65
2022-08-22T08:12:08.255Z,21.74
2022-08-22T08:14:32.373Z,21.85
2022-08-22T08:17:06.308Z,21.95
2022-08-22T08:19:33.449Z,21.99
2022-08-22T08:21:57.974Z,22.18
2022-08-22T08:24:26.280Z,22.43
2022-08-22T08:27:14.489Z,22.61
2022-08-22T08:29:37.306Z,22.70
2022-08-22T08:32:01.116Z,22.73
2022-08-22T08:34:27.226Z,22.76
2022-08-22T08:37:17.917Z,22.84
2022-08-22T08:39:53.515Z,22.98
2022-08-22T08:42:33.681Z,23.16
2022-08-22T08:45:51.918Z,23.34
2022-08-22T08:48:33.583Z,23.42
2022-08-22T08:51:04.409Z,23.50
2022-08-22T08:53:43.242Z,23.56
2022-08-22T08:56:30.511Z,23.61
2022-08-22T08:59:49.905Z,23.60
2022-08-22T09:02:48.643Z,23.59
2022-08-22T09:05:57.503Z,23.61
2022-08-22T09:08:37.236Z,23.70
2022-08-22T09:11:49.341Z,23.82
2022-08-22T09:18:03.955Z,23.90
2022-08-22T09:20:46.571Z,24.02
2022-08-22T09:23:53.374Z,24.13
2022-08-22T09:27:01.306Z,24.25
2022-08-22T09:29:59.878Z,24.28
2022-08-22T09:32:33.718Z,24.36
2022-08-22T09:35:11.515Z,24.44
2022-08-22T09:40:15.705Z,24.47
2022-08-22T09:40:50.216Z,24.47
2022-08-22T09:43:29.495Z,24.48
2022-08-22T09:46:10.370Z,24.51
2022-08-22T09:49:00.192Z,24.54
2022-08-22T09:52:15.728Z,24.57
2022-08-22T09:55:04.391Z,24.63
2022-08-22T09:57:52.422Z,24.69
2022-08-22T10:00:23.289Z,24.68
2022-08-22T10:03:28.544Z,24.71
2022-08-22T10:06:25.039Z,24.84
2022-08-22T10:09:00.860Z,24.91
2022-08-22T10:11:33.602Z,25.03
2022-08-22T10:14:22.385Z,25.18
2022-08-22T10:17:03.031Z,25.38
2022-08-22T10:19:37.019Z,25.51
2022-08-22T10:22:30.328Z,25.63
2022-08-22T10:25:22.499Z,25.67
2022-08-22T10:28:15.393Z,25.71
2022-08-22T10:31:01.506Z,25.74
2022-08-22T10:33:54.136Z,25.86
2022-08-22T10:36:49.932Z,25.98
2022-08-22T10:39:24.702Z,26.05
2022-08-22T10:42:27.999Z,26.13
2022-08-22T10:45:24.045Z,26.32
2022-08-22T10:47:58.791Z,26.50
2022-08-22T10:50:48.962Z,26.56
2022-08-22T10:53:34.810Z,26.66
2022-08-22T10:56:10.926Z,26.90
2022-08-22T10:58:54.909Z,26.93
2022-08-22T11:01:38.120Z,27.07
2022-08-22T11:04:44.350Z,27.22
2022-08-22T11:07:29.690Z,27.35
2022-08-22T11:10:05.256Z,27.47
2022-08-22T11:12:43.698Z,27.64
2022-08-22T11:16:04.139Z,27.82
2022-08-22T11:19:02.054Z,27.85
2022-08-22T11:22:23.813Z,27.78
2022-08-22T11:25:26.903Z,27.59
2022-08-22T11:28:19.768Z,27.41
2022-08-22T11:31:16.321Z,27.42
2022-08-22T11:34:03.511Z,27.64
2022-08-22T11:37:11.095Z,27.75
2022-08-22T11:40:11.813Z,27.81
2022-08-22T11:43:11.976Z,27.80
2022-08-22T11:45:52.523Z,27.66
2022-08-22T11:48:53.943Z,27.56
2022-08-22T11:51:53.269Z,27.54
2022-08-22T11:54:47.443Z,27.55
2022-08-22T11:57:34.269Z,27.66
2022-08-22T12:00:20.706Z,27.68
2022-08-22T12:02:51.944Z,27.75
2022-08-22T12:05:44.575Z,27.80
2022-08-22T12:08:29.331Z,27.95
2022-08-22T12:11:41.289Z,28.20
2022-08-22T12:14:18.864Z,28.26
2022-08-22T12:17:02.485Z,28.16
2022-08-22T12:19:32.923Z,28.17
2022-08-22T12:22:36.367Z,28.40
2022-08-22T12:25:35.883Z,28.48
2022-08-22T12:28:31.459Z,28.43
2022-08-22T12:31:29.835Z,28.33
2022-08-22T12:33:59.780Z,28.13
2022-08-22T12:36:27.745Z,28.01
2022-08-22T12:39:25.199Z,27.92
2022-08-22T12:42:08.248Z,27.81
2022-08-22T12:44:54.972Z,27.83
2022-08-22T12:48:18.389Z,27.91
2022-08-22T12:50:58.203Z,28.00
2022-08-22T12:53:41.316Z,28.06
2022-08-22T12:56:53.152Z,28.14
2022-08-22T12:59:41.949Z,28.23
2022-08-22T13:02:28.129Z,28.24
2022-08-22T13:04:58.474Z,28.16
2022-08-22T13:07:34.789Z,28.14
2022-08-22T13:10:22.818Z,28.23
2022-08-22T13:12:53.900Z,28.38
2022-08-22T13:15:31.738Z,28.50
2022-08-22T13:18:08.687Z,28.51
2022-08-22T13:20:43.379Z,28.45
2022-08-22T13:23:39.696Z,28.42
2022-08-22T13:26:26.935Z,28.45
2022-08-22T13:29:25.673Z,28.41
2022-08-22T13:31:59.234Z,28.33
2022-08-22T13:34:39.619Z,28.17
2022-08-22T13:37:06.862Z,28.04
2022-08-22T13:39:45.919Z,27.98
2022-08-22T13:42:20.291Z,27.91
2022-08-22T13:44:56.977Z,27.83
2022-08-22T13:47:24.488Z,27.72
2022-08-22T13:49:54.818Z,27.65
2022-08-22T13:52:37.985Z,27.65
2022-08-22T13:55:16.530Z,27.62
2022-08-22T13:58:11.258Z,27.58
2022-08-22T14:01:04.419Z,27.53
2022-08-22T14:03:43.964Z,27.53
2022-08-22T14:06:35.447Z,27.48
2022-08-22T14:09:29.394Z,27.48
2022-08-22T14:12:08.255Z,27.53
2022-08-22T14:14:39.418Z,27.56
2022-08-22T14:17:03.225Z,27.56
2022-08-22T14:19:53.104Z,27.61
2022-08-22T14:22:32.555Z,27.64
2022-08-22T14:25:04.235Z,27.67
2022-08-22T14:28:00.991Z,27.74
2022-08-22T14:30:32.658Z,27.88
2022-08-22T14:33:13.836Z,28.07
2022-08-22T14:35:52.927Z,28.16
2022-08-22T14:38:29.871Z,28.26
2022-08-22T14:41:05.404Z,28.24
2022-08-22T14:43:27.282Z,28.24
2022-08-22T14:46:01.825Z,28.29
2022-08-22T14:48:38.760Z,28.17
2022-08-22T14:51:10.659Z,28.10
2022-08-22T14:53:39.944Z,28.08
2022-08-22T14:56:29.721Z,28.14
2022-08-22T14:59:06.739Z,28.22
2022-08-22T15:01:53.207Z,28.28
2022-08-22T15:04:32.999Z,28.21
2022-08-22T15:06:58.770Z,28.08
2022-08-22T15:09:41.499Z,28.04
2022-08-22T15:12:20.800Z,28.23
2022-08-22T15:14:51.909Z,28.55
2022-08-22T15:17:34.859Z,28.74
2022-08-22T15:20:26.059Z,28.74
2022-08-22T15:22:53.167Z,28.78
2022-08-22T15:25:22.065Z,28.67
2022-08-22T15:28:14.121Z,28.47
2022-08-22T15:30:44.436Z,28.30
2022-08-22T15:33:29.399Z,28.18
2022-08-22T15:35:54.939Z,28.02
2022-08-22T15:38:49.294Z,27.94
2022-08-22T15:41:36.678Z,27.90
2022-08-22T15:44:14.807Z,28.08
2022-08-22T15:46:53.172Z,28.12
2022-08-22T15:49:21.509Z,28.10
2022-08-22T15:52:11.047Z,28.17
2022-08-22T15:55:18.059Z,28.20
2022-08-22T15:57:57.590Z,28.10
2022-08-22T16:00:44.944Z,28.13
2022-08-22T16:03:31.925Z,28.17
2022-08-22T16:05:59.784Z,28.17
2022-08-22T16:08:46.923Z,28.14
2022-08-22T16:11:33.462Z,28.14
2022-08-22T16:14:19.210Z,28.02
2022-08-22T16:17:03.338Z,27.87
2022-08-22T16:19:30.215Z,27.70
2022-08-22T16:21:54.887Z,27.61
2022-08-22T16:24:16.752Z,27.56
2022-08-22T16:26:42.961Z,27.48
2022-08-22T16:29:14.697Z,27.45
2022-08-22T16:31:48.870Z,27.52
2022-08-22T16:34:17.177Z,27.57
2022-08-22T16:37:03.950Z,27.68
2022-08-22T16:39:41.092Z,27.78
2022-08-22T16:42:15.659Z,27.67
2022-08-22T16:44:46.938Z,27.52
2022-08-22T16:47:11.794Z,27.47
2022-08-22T16:49:55.786Z,27.43
2022-08-22T16:52:23.996Z,27.36
2022-08-22T16:54:50.101Z,27.38
2022-08-22T16:57:37.194Z,27.43
2022-08-22T17:00:10.631Z,27.42
2022-08-22T17:03:00.108Z,27.41
2022-08-22T17:05:50.497Z,27.38
2022-08-22T17:08:53.019Z,27.34
2022-08-22T17:11:33.948Z,27.37
2022-08-22T17:14:12.295Z,27.39
2022-08-22T17:17:28.379Z,27.39
2022-08-22T17:20:21.518Z,27.35
2022-08-22T17:23:33.465Z,27.35
2022-08-22T17:26:50.195Z,27.32
2022-08-22T17:29:59.620Z,27.25
2022-08-22T17:32:35.039Z,27.20
2022-08-22T17:35:33.614Z,27.18
2022-08-22T17:38:06.516Z,27.14
2022-08-22T17:41:06.484Z,27.10
2022-08-22T17:43:49.844Z,27.07
2022-08-22T17:46:40.336Z,27.03
2022-08-22T17:49:40.681Z,26.97
2022-08-22T17:52:41.654Z,26.94
2022-08-22T17:55:19.740Z,26.91
2022-08-22T17:57:53.801Z,26.89
2022-08-22T18:00:33.352Z,26.87
2022-08-22T18:03:09.494Z,26.84
2022-08-22T18:05:52.255Z,26.82
2022-08-22T18:08:38.105Z,26.79
2022-08-22T18:11:19.548Z,26.73
2022-08-22T18:13:54.161Z,26.69
2022-08-22T18:16:37.262Z,26.73
2022-08-22T18:19:20.027Z,26.87
2022-08-22T18:21:59.855Z,27.04
2022-08-22T18:24:49.497Z,27.08
2022-08-22T18:27:50.419Z,27.06
2022-08-22T18:30:12.200Z,26.97
2022-08-22T18:32:59.213Z,26.82
2022-08-22T18:35:41.266Z,26.61
2022-08-22T18:38:36.026Z,26.40
2022-08-22T18:41:15.697Z,26.21
2022-08-22T18:43:48.140Z,25.97
2022-08-22T18:46:38.479Z,25.80
2022-08-22T18:49:22.516Z,25.62
2022-08-22T18:51:44.729Z,25.47
2022-08-22T18:54:11.535Z,25.32
2022-08-22T18:56:54.690Z,25.15
2022-08-22T19:00:01.935Z,24.92
2022-08-22T19:02:51.177Z,24.71
2022-08-22T19:05:40.492Z,24.56
2022-08-22T19:08:40.881Z,24.47
2022-08-22T19:11:42.135Z,24.34
2022-08-22T19:14:40.840Z,24.17
2022-08-22T19:17:24.282Z,23.99
2022-08-22T19:20:24.993Z,23.86
2022-08-22T19:22:50.983Z,23.75
2022-08-22T19:25:27.914Z,23.72
2022-08-22T19:28:11.511Z,23.66
2022-08-22T19:30:42.657Z,23.63
2022-08-22T19:33:38.555Z,23.62
2022-08-22T19:36:13.163Z,23.59
2022-08-22T19:39:40.080Z,23.56
2022-08-22T19:42:03.412Z,23.50
2022-08-22T19:44:42.209Z,23.48
2022-08-22T19:47:20.726Z,23.46
2022-08-22T19:49:55.118Z,23.47
2022-08-22T19:52:45.984Z,23.46
2022-08-22T19:55:39.105Z,23.45
2022-08-22T19:58:37.799Z,23.43
2022-08-22T20:01:37.503Z,23.43
2022-08-22T20:04:34.775Z,23.44
2022-08-22T20:07:16.809Z,23.45
2022-08-22T20:10:38.534Z,23.47
2022-08-22T20:13:12.248Z,23.45
2022-08-22T20:16:00.723Z,23.45
2022-08-22T20:19:07.634Z,23.43
2022-08-22T20:22:03.916Z,23.39
2022-08-22T20:24:34.391Z,23.33
2022-08-22T20:27:13.948Z,23.28
2022-08-22T20:29:43.082Z,23.25
2022-08-22T20:32:06.277Z,23.23
2022-08-22T20:34:36.562Z,23.24
2022-08-22T20:37:27.106Z,23.24
2022-08-22T20:40:53.449Z,23.22
2022-08-22T20:43:23.081Z,23.21
2022-08-22T20:46:26.741Z,23.20
2022-08-22T20:48:54.494Z,23.19
2022-08-22T20:51:25.365Z,23.16
2022-08-22T20:54:01.508Z,23.15
2022-08-22T20:56:53.062Z,23.13
2022-08-22T20:59:27.581Z,23.11
2022-08-22T21:02:04.652Z,23.13
2022-08-22T21:04:42.781Z,23.15
2022-08-22T21:07:05.075Z,23.17
2022-08-22T21:09:46.956Z,23.18
2022-08-22T21:12:11.437Z,23.18
2022-08-22T21:14:34.940Z,23.17
2022-08-22T21:16:57.327Z,23.16
2022-08-22T21:19:29.607Z,23.15
2022-08-22T21:21:51.721Z,23.12
2022-08-22T21:24:13.698Z,23.12
2022-08-22T21:27:00.952Z,23.12
2022-08-22T21:29:33.831Z,23.13
2022-08-22T21:32:05.430Z,23.14
2022-08-22T21:34:35.303Z,23.14
2022-08-22T21:37:07.580Z,23.12
2022-08-22T21:39:44.187Z,23.10
2022-08-22T21:42:05.989Z,23.08
2022-08-22T21:44:30.763Z,23.06
2022-08-22T21:46:53.763Z,23.02
2022-08-22T21:49:29.467Z,22.99
2022-08-22T21:51:51.833Z,22.94
2022-08-22T21:54:20.015Z,22.91
2022-08-22T21:56:41.950Z,22.87
2022-08-22T21:59:50.953Z,22.83
2022-08-22T22:02:41.529Z,22.77
2022-08-22T22:05:11.864Z,22.71
2022-08-22T22:07:38.392Z,22.67
2022-08-22T22:10:00.233Z,22.64
2022-08-22T22:12:23.852Z,22.61
2022-08-22T22:14:51.566Z,22.58
2022-08-22T22:17:13.568Z,22.54
2022-08-22T22:19:36.766Z,22.52
2022-08-22T22:21:58.679Z,22.47
2022-08-22T22:24:20.730Z,22.42
2022-08-22T22:26:42.657Z,22.39
2022-08-22T22:29:04.658Z,22.36
2022-08-22T22:31:26.610Z,22.31
2022-08-22T22:33:48.471Z,22.27
2022-08-22T22:36:18.365Z,22.21
2022-08-22T22:38:42.093Z,22.15
2022-08-22T22:41:04.031Z,22.10
2022-08-22T22:43:25.951Z,22.05
2022-08-22T22:45:47.895Z,21.99
2022-08-22T22:48:09.800Z,21.97
2022-08-22T22:50:31.778Z,21.92
2022-08-22T22:52:54.166Z,21.89
2022-08-22T22:55:24.781Z,21.83
2022-08-22T22:57:47.034Z,21.75
2022-08-22T23:00:11.529Z,21.70
2022-08-22T23:02:33.620Z,21.64
2022-08-22T23:04:56.493Z,21.58
2022-08-22T23:07:18.913Z,21.56
2022-08-22T23:09:45.061Z,21.53
2022-08-22T23:12:07.645Z,21.47
2022-08-22T23:14:31.078Z,21.42
2022-08-22T23:16:53.282Z,21.38
2022-08-22T23:19:17.861Z,21.34
2022-08-22T23:21:41.943Z,21.29
2022-08-22T23:24:04.013Z,21.22
2022-08-22T23:26:26.836Z,21.18
2022-08-22T23:28:49.206Z,21.13
2022-08-22T23:31:42.537Z,21.08
2022-08-22T23:34:17.347Z,21.00
2022-08-22T23:36:42.674Z,20.92
2022-08-22T23:39:07.698Z,20.86
2022-08-22T23:41:29.595Z,20.81
2022-08-22T23:43:55.192Z,20.74
2022-08-22T23:46:20.698Z,20.67
2022-08-22T23:48:43.074Z,20.60
2022-08-22T23:51:05.549Z,20.56
2022-08-22T23:53:29.026Z,20.49
2022-08-22T23:55:50.932Z,20.45
2022-08-22T23:58:15.413Z,20.40
